createdAt,value
2019-03-21T00:04:10.586Z,1.96
2019-03-21T00:10:05.592Z,1.8
2019-03-21T00:16:00.642Z,2.26
2019-03-21T00:21:55.657Z,1.84
2019-03-21T00:27:50.620Z,2.23
2019-03-21T00:33:45.642Z,2.34
2019-03-21T00:39:40.600Z,2
2019-03-21T00:45:35.611Z,2.27
2019-03-21T00:51:30.606Z,1.87
2019-03-21T00:57:25.616Z,1.9
2019-03-21T01:03:20.601Z,2.49
2019-03-21T01:09:15.665Z,2.68
2019-03-21T01:15:10.615Z,2.23
2019-03-21T01:21:05.604Z,2.34
2019-03-21T01:27:00.615Z,1.97
2019-03-21T01:32:55.607Z,2.76
2019-03-21T01:38:50.621Z,2.59
2019-03-21T01:44:45.600Z,2.53
2019-03-21T01:50:40.665Z,3.32
2019-03-21T01:56:35.601Z,2.33
2019-03-21T02:02:30.620Z,1.83
2019-03-21T02:08:25.625Z,2.3
2019-03-21T02:14:20.644Z,3.2
2019-03-21T02:20:15.622Z,2.61
2019-03-21T02:26:10.624Z,2.02
2019-03-21T02:32:05.645Z,3.21
2019-03-21T02:38:00.626Z,3.34
2019-03-21T02:43:55.621Z,2.46
2019-03-21T02:49:50.679Z,3.16
2019-03-21T02:55:45.623Z,2.2
2019-03-21T03:01:40.670Z,2.8
2019-03-21T03:07:37.456Z,2.48
2019-03-21T03:13:30.668Z,2.63
2019-03-21T03:19:25.659Z,2.79
2019-03-21T03:25:20.653Z,3.07
2019-03-21T03:31:15.839Z,3.13
2019-03-21T03:37:10.627Z,2.88
2019-03-21T03:43:05.679Z,2.8
2019-03-21T03:49:00.673Z,2.78
2019-03-21T03:54:55.648Z,2.77
2019-03-21T04:00:50.668Z,2.81
2019-03-21T04:06:45.663Z,3.23
2019-03-21T04:12:40.656Z,2.11
2019-03-21T04:18:35.659Z,2.21
2019-03-21T04:24:30.663Z,2.67
2019-03-21T04:30:25.677Z,2.88
2019-03-21T04:36:20.659Z,3.31
2019-03-21T04:42:15.710Z,2.47
2019-03-21T04:48:10.663Z,3.35
2019-03-21T04:54:05.667Z,3.17
2019-03-21T05:00:03.523Z,2.48
2019-03-21T05:05:55.682Z,2.99
2019-03-21T05:11:50.649Z,3.09
2019-03-21T05:17:45.660Z,3.01
2019-03-21T05:23:40.702Z,2.79
2019-03-21T05:29:35.673Z,2.11
2019-03-21T05:35:30.687Z,1.9
2019-03-21T05:41:25.660Z,3.07
2019-03-21T05:47:20.675Z,2.4
2019-03-21T05:53:15.695Z,3.01
2019-03-21T05:59:10.734Z,2.95
2019-03-21T06:05:05.682Z,3.55
2019-03-21T06:11:00.673Z,1.47
2019-03-21T06:16:55.693Z,2.26
2019-03-21T06:22:50.668Z,2.34
2019-03-21T06:28:45.677Z,2.23
2019-03-21T06:34:40.709Z,1.66
2019-03-21T06:40:35.695Z,2.77
2019-03-21T06:46:30.722Z,2.17
2019-03-21T06:52:25.721Z,3.14
2019-03-21T06:58:20.687Z,2.54
2019-03-21T07:04:15.679Z,3.1
2019-03-21T07:10:10.690Z,2.75
2019-03-21T07:16:05.673Z,2.09
2019-03-21T07:22:00.707Z,1.7
2019-03-21T07:27:55.708Z,2.92
2019-03-21T07:33:50.707Z,1.99
2019-03-21T07:39:45.707Z,2.27
2019-03-21T07:45:40.683Z,2.19
2019-03-21T07:51:35.679Z,3.23
2019-03-21T07:57:30.705Z,3.07
2019-03-21T08:03:25.691Z,2.74
2019-03-21T08:09:20.695Z,2.4
2019-03-21T08:15:15.693Z,3.02
2019-03-21T08:21:10.730Z,2.89
2019-03-21T08:27:05.721Z,2.38
2019-03-21T08:33:02.883Z,2.57
2019-03-21T08:38:55.717Z,3.08
2019-03-21T08:44:50.727Z,3.09
2019-03-21T08:50:45.715Z,2.68
2019-03-21T08:56:40.703Z,4.27
2019-03-21T09:02:35.726Z,2.53
2019-03-21T09:08:30.810Z,2.51
2019-03-21T09:14:25.721Z,1.94
2019-03-21T09:20:20.723Z,2.69
2019-03-21T09:26:15.757Z,2.02
2019-03-21T09:32:10.759Z,2.77
2019-03-21T09:38:05.724Z,2.85
2019-03-21T09:44:00.735Z,2.64
2019-03-21T09:49:55.738Z,2.22
2019-03-21T09:55:50.725Z,3.12
2019-03-21T10:01:45.753Z,2.32
2019-03-21T10:07:40.924Z,2.91
2019-03-21T10:13:35.747Z,3.49
2019-03-21T10:19:30.713Z,2.96
2019-03-21T10:25:26.750Z,3.5
2019-03-21T10:31:20.774Z,2.62
2019-03-21T10:37:15.717Z,2.55
2019-03-21T10:43:10.845Z,2.57
2019-03-21T10:49:05.734Z,3.25
2019-03-21T10:55:00.782Z,2.86
2019-03-21T11:00:55.751Z,2.35
2019-03-21T11:06:50.842Z,2.84
2019-03-21T11:12:45.744Z,2.37
2019-03-21T11:18:40.758Z,3.28
2019-03-21T11:24:35.757Z,2.23
2019-03-21T11:30:30.761Z,3.2
2019-03-21T11:36:33.706Z,2.8
2019-03-21T11:42:20.779Z,4.3
2019-03-21T11:48:15.782Z,3.06
2019-03-21T11:54:10.803Z,2.55
2019-03-21T12:00:05.761Z,2.25
2019-03-21T12:06:00.786Z,4.32
2019-03-21T12:11:55.780Z,4.33
2019-03-21T12:17:50.853Z,3.84
2019-03-21T12:23:45.760Z,3.7
2019-03-21T12:29:40.792Z,3.49
2019-03-21T12:35:35.811Z,3.64
2019-03-21T12:41:30.765Z,3.93
2019-03-21T12:47:30.983Z,3.39
2019-03-21T12:53:20.785Z,3.22
2019-03-21T12:59:15.771Z,2.88
2019-03-21T13:05:10.777Z,3.1
2019-03-21T13:11:05.888Z,4.04
2019-03-21T13:17:00.799Z,4.6
2019-03-21T13:22:55.836Z,2.68
2019-03-21T13:28:50.806Z,4.04
2019-03-21T13:34:45.810Z,2.59
2019-03-21T13:40:40.926Z,2.26
2019-03-21T13:46:35.798Z,3.47
2019-03-21T13:52:30.797Z,3.19
2019-03-21T13:58:25.820Z,2.93
2019-03-21T14:04:20.804Z,2.68
2019-03-21T14:10:15.799Z,3.63
2019-03-21T14:16:10.854Z,3.02
2019-03-21T14:22:06.444Z,3.11
2019-03-21T14:28:00.838Z,2.62
2019-03-21T14:33:55.825Z,3.41
2019-03-21T14:39:50.842Z,4.17
2019-03-21T14:45:45.859Z,4.83
2019-03-21T14:51:40.837Z,2.98
2019-03-21T14:57:35.843Z,3.8
2019-03-21T15:03:30.871Z,2.63
2019-03-21T15:09:25.860Z,3.93
2019-03-21T15:15:20.903Z,5.18
2019-03-21T15:21:15.938Z,8.79
2019-03-21T15:27:10.844Z,5.24
2019-03-21T15:33:05.831Z,3.25
2019-03-21T15:39:00.834Z,3.24
2019-03-21T15:45:07.345Z,4.68
2019-03-21T15:50:50.856Z,4.03
2019-03-21T15:56:45.865Z,5.27
2019-03-21T16:02:40.845Z,6.06
2019-03-21T16:08:35.895Z,7
2019-03-21T16:14:30.843Z,5.74
2019-03-21T16:20:25.839Z,4.28
2019-03-21T16:26:20.865Z,4.77
2019-03-21T16:32:15.872Z,7.49
2019-03-21T16:38:10.846Z,4.49
2019-03-21T16:44:05.869Z,5.24
2019-03-21T16:50:00.914Z,4.77
2019-03-21T16:55:55.880Z,5.53
2019-03-21T17:01:50.869Z,4.75
2019-03-21T17:07:45.893Z,8.68
2019-03-21T17:13:40.871Z,3.5
2019-03-21T17:19:37.270Z,4.26
2019-03-21T17:25:31.416Z,5.13
2019-03-21T17:31:25.869Z,7.52
2019-03-21T17:37:20.894Z,4.2
2019-03-21T17:43:15.900Z,4.61
2019-03-21T17:49:10.923Z,6.06
2019-03-21T17:55:05.887Z,5.39
2019-03-21T18:01:00.955Z,5.13
2019-03-21T18:06:55.899Z,5.19
2019-03-21T18:12:50.896Z,4.4
2019-03-21T18:18:45.919Z,3.82
2019-03-21T18:24:52.961Z,6.01
2019-03-21T18:30:35.904Z,8.37
2019-03-21T18:36:30.917Z,6.44
2019-03-21T18:42:25.902Z,9.3
2019-03-21T18:48:20.909Z,7.89
2019-03-21T18:54:15.914Z,7.67
2019-03-21T19:00:10.938Z,7.02
2019-03-21T19:06:05.946Z,5.47
2019-03-21T19:12:00.914Z,6.73
2019-03-21T19:17:55.893Z,9.26
2019-03-21T19:24:02.590Z,8.03
2019-03-21T19:29:45.943Z,7.11
2019-03-21T19:35:42.114Z,7.31
2019-03-21T19:41:35.949Z,6.03
2019-03-21T19:47:30.909Z,4.53
2019-03-21T19:53:25.924Z,5.11
2019-03-21T19:59:20.935Z,4.6
2019-03-21T20:05:15.973Z,4.23
2019-03-21T20:11:10.920Z,6.47
2019-03-21T20:17:05.940Z,3.88
2019-03-21T20:23:00.938Z,3.65
2019-03-21T20:28:55.974Z,3.71
2019-03-21T20:34:50.965Z,3.62
2019-03-21T20:40:45.943Z,4.13
2019-03-21T20:46:40.966Z,3.93
2019-03-21T20:52:35.952Z,3.22
2019-03-21T20:58:30.930Z,4.95
2019-03-21T21:04:25.989Z,5.04
2019-03-21T21:10:20.973Z,6.29
2019-03-21T21:16:15.944Z,6.25
2019-03-21T21:22:10.954Z,4.4
2019-03-21T21:28:05.973Z,3.71
2019-03-21T21:34:00.988Z,3.31
2019-03-21T21:39:56.000Z,2.91
2019-03-21T21:45:50.964Z,2.98
2019-03-21T21:51:45.949Z,2.83
2019-03-21T21:57:40.958Z,3.29
2019-03-21T22:03:35.957Z,3.44
2019-03-21T22:09:30.936Z,3.12
2019-03-21T22:15:25.998Z,3.67
2019-03-21T22:21:20.953Z,3.89
2019-03-21T22:27:15.996Z,3.84
2019-03-21T22:33:10.959Z,3.7
2019-03-21T22:39:06.004Z,3.51
2019-03-21T22:45:00.994Z,3.73
2019-03-21T22:50:55.989Z,4.02
2019-03-21T22:56:50.957Z,3.65
2019-03-21T23:02:46.023Z,2.68
2019-03-21T23:08:40.994Z,3.05
2019-03-21T23:14:35.995Z,3.3
2019-03-21T23:20:31.012Z,2.85
2019-03-21T23:26:25.988Z,2.93
2019-03-21T23:32:20.976Z,3.07
2019-03-21T23:38:15.989Z,2.83
2019-03-21T23:44:10.967Z,2.78
2019-03-21T23:50:05.974Z,2.68
2019-03-21T23:56:03.140Z,1.69
